»·PEaware :: SKY374 KCLM-KFHR

SKY374 :: KCLM-KFHR

FLIGHT INFORMATION

Flight Status: Arrived
Operator:
Sky High Charters
More flights by this operator :: More flights under this callsign
Pilot: Mark S. (16827)
Aircraft: CESSNA 172 SKYHAWK
(C172)
More flights by this aircraft type
Origin: KCLM Fairchild Intl
United States
Destination: KFHR Friday Harbor
United States
More flights between these airports :: More routes between these airports
Route: +WATTR7 WATTR
File this flight plan on PilotEdge
Remarks:
Altitude:
(Current/Filed)
7,000ft
Speed:
(Current/Filed)
120kts
Departed: 12-Jan-20 11:08 AM
Arrived: 12-Jan-20 11:37 AM
Distance/Time
Traveled:
31nm/0:29
Distance/Time
To Go:
Arrived

Flight Plot

Page will automatically refresh every two minutes.


Map Options




Map Legend


Flown Route
Filed Route
Departure Airport
Arrival Airport
Navaid (VOR, NDB)
Fix

Horizontal Profiles

Position Reports

Time Latitude Longitude Heading Altitude Ground
Speed
12-Jan-20 10:45 48.117072 -123.500533 104 279ft 0kts
12-Jan-20 10:46 48.117072 -123.500533 104 279ft 0kts
12-Jan-20 10:47 48.117072 -123.500533 104 279ft 0kts
12-Jan-20 10:48 48.117072 -123.500533 104 279ft 0kts
12-Jan-20 10:49 48.117072 -123.500533 104 279ft 0kts
12-Jan-20 10:50 48.117072 -123.500533 104 279ft 0kts
12-Jan-20 10:51 48.117072 -123.500533 104 279ft 0kts
12-Jan-20 10:52 48.117072 -123.500533 104 279ft 0kts
12-Jan-20 10:53 48.117072 -123.500445 65 279ft 1kts
12-Jan-20 10:54 48.117562 -123.498052 103 277ft 10kts
12-Jan-20 10:55 48.117174 -123.493920 107 283ft 12kts
12-Jan-20 10:56 48.116780 -123.492224 14 287ft 0kts
12-Jan-20 10:57 48.116780 -123.492224 14 287ft 0kts
12-Jan-20 10:58 48.116780 -123.492224 14 287ft 0kts
12-Jan-20 10:59 48.116780 -123.492224 14 287ft 0kts
12-Jan-20 11:00 48.116783 -123.492223 21 287ft 0kts
12-Jan-20 11:01 48.116783 -123.492223 21 287ft 0kts
12-Jan-20 11:02 48.116783 -123.492223 21 287ft 0kts
12-Jan-20 11:03 48.116783 -123.492223 21 287ft 0kts
12-Jan-20 11:04 48.116783 -123.492223 21 287ft 0kts
12-Jan-20 11:05 48.116783 -123.492223 21 287ft 0kts
12-Jan-20 11:06 48.116783 -123.492223 21 287ft 0kts
12-Jan-20 11:07 48.118414 -123.496933 286 296ft 62kts
12-Jan-20 11:08 48.127238 -123.515745 7 1044ft 81kts
12-Jan-20 11:09 48.135982 -123.483274 81 1803ft 90kts
12-Jan-20 11:10 48.142568 -123.447424 70 2446ft 88kts
12-Jan-20 11:11 48.146610 -123.411301 89 3030ft 89kts
12-Jan-20 11:12 48.148212 -123.373435 84 3572ft 94kts
12-Jan-20 11:13 48.149433 -123.334647 90 4130ft 94kts
12-Jan-20 11:14 48.150365 -123.295563 90 4705ft 97kts
12-Jan-20 11:15 48.151172 -123.254680 90 5254ft 100kts
12-Jan-20 11:16 48.151996 -123.215636 90 5744ft 103kts
12-Jan-20 11:17 48.153006 -123.172812 90 6273ft 103kts
12-Jan-20 11:18 48.154166 -123.130425 89 6715ft 103kts
12-Jan-20 11:19 48.155548 -123.088059 89 6886ft 100kts
12-Jan-20 11:20 48.157707 -123.048962 81 6666ft 96kts
12-Jan-20 11:21 48.161855 -123.015205 55 6184ft 97kts
12-Jan-20 11:22 48.179426 -123.016874 325 5823ft 72kts
12-Jan-20 11:23 48.200735 -123.015083 13 5540ft 90kts
12-Jan-20 11:24 48.224433 -123.005068 14 5259ft 91kts
12-Jan-20 11:25 48.248120 -122.993632 354 4912ft 92kts
12-Jan-20 11:26 48.273877 -122.991758 356 4611ft 95kts
12-Jan-20 11:27 48.301546 -122.991545 353 4080ft 110kts
12-Jan-20 11:28 48.333838 -122.992772 353 3388ft 119kts
12-Jan-20 11:29 48.366439 -122.994762 353 2681ft 115kts
12-Jan-20 11:30 48.399200 -122.996680 353 2039ft 117kts
12-Jan-20 11:31 48.429406 -123.001933 348 1746ft 116kts
12-Jan-20 11:32 48.461955 -123.006917 349 1255ft 118kts
12-Jan-20 11:33 48.494149 -123.008859 4 970ft 119kts
12-Jan-20 11:34 48.525475 -123.004702 347 926ft 105kts
12-Jan-20 11:35 48.535867 -123.023731 202 599ft 70kts
12-Jan-20 11:36 48.521206 -123.024359 175 96ft 29kts
12-Jan-20 11:37 48.520793 -123.024871 356 96ft 5kts
12-Jan-20 11:38 48.523237 -123.025068 0 103ft 5kts
12-Jan-20 11:39 48.524752 -123.026044 0 112ft 0kts
12-Jan-20 11:40 48.524752 -123.026044 0 112ft 0kts
12-Jan-20 11:41 48.524752 -123.026044 0 112ft 0kts
12-Jan-20 11:42 48.524752 -123.026044 0 112ft 0kts
12-Jan-20 11:43 48.524757 -123.025888 171 113ft 0kts
12-Jan-20 11:44 48.524757 -123.025888 171 113ft 0kts
12-Jan-20 11:45 48.524757 -123.025888 171 113ft 0kts
12-Jan-20 11:46 48.524757 -123.025888 171 113ft 0kts
12-Jan-20 11:47 48.524757 -123.025888 171 113ft 0kts
12-Jan-20 11:48 48.524757 -123.025888 171 113ft 0kts
12-Jan-20 11:49 48.524757 -123.025888 171 113ft 0kts
12-Jan-20 11:50 48.524757 -123.025888 171 113ft 0kts

Navigation Log

Ident Type
Flight plan parsing failed, navigation log unavailable